Hauptseite
METAR-TAF:

METAR-TAF

Flughäfen :

Aviano, Italien

Aviano Air Base

Breite: 46-02N, Länge: 012-36E, Höhe: 128 m

Beobachtung

Neuester Wetterbericht von vor 31 Minuten, um 10:55 UTC
Wind 1 kt aus Ost/Südost
Temperatur 12°C
Luftfeuchtigkeit 67%
Luftdruck 1019 hPa
Sichtweite 10 km oder mehr
Aufgelockert bewölkt in der Höhe von 4500 ft
Durchbrochene Bewölkung in der Höhe von 7000 ft

METAR: LIPA 231055Z 12001KT 9999 SCT045 BKN070 12/06 Q1019 RMK BKN VIS MIN 9999 WIND THR05 /////KT WIND THR23 /////KT A3012 BLU

Zeit: 12:26 (11:26 UTC)

Prognose

Neuester Wetterbericht von vor 3 Stunden und 26 Minuten, um 08:00 UTC
Gültige Prognose vom 23 um 09 UTC bis 23 um 18 UTC
Wind 4 kt aus unterschiedlichen Richtungen
Sichtweite 10 km oder mehr
Aufgelockert bewölkt in der Höhe von 4000 ft
Durchbrochene Bewölkung in der Höhe von 6000 ft

TAF: LIPA 230800Z 2309/2318 VRB04KT 9999 SCT040 BKN060

Wetterbeobachtungen und Prognosen von mehr als 4000 Flughäfen (METAR und TAF Bericht).

Die verfügbaren Stationen werden durch gelbe und rote Markierungen auf der Karte dargestellt.

Führen Sie die Maus auf sie, um den Namen der Station zu sehen.

Darauf klicken, um die Beobachtung von Wetterbeobachtungen und Prognosen zu sehen.

Um die Karte zu ändern : klicken Sie auf den grünen Tasten mit einem schwarzen Kreuz Zum Vergrößern, auf den grünen Button mit einem Gedankenstrich zu verkleinern, oder auf die grünen Pfeile für benachbarte Karten.


METAR-TAF: